createdAt,value
2023-04-13T00:01:27.769Z,100.00
2023-04-13T00:03:55.052Z,100.00
2023-04-13T00:06:23.100Z,100.00
2023-04-13T00:08:50.543Z,100.00
2023-04-13T00:11:18.228Z,100.00
2023-04-13T00:13:47.935Z,100.00
2023-04-13T00:16:16.737Z,100.00
2023-04-13T00:18:43.745Z,100.00
2023-04-13T00:21:10.778Z,100.00
2023-04-13T00:23:38.166Z,100.00
2023-04-13T00:26:08.415Z,100.00
2023-04-13T00:28:35.804Z,100.00
2023-04-13T00:31:02.866Z,100.00
2023-04-13T00:33:32.787Z,100.00
2023-04-13T00:36:00.062Z,100.00
2023-04-13T00:38:30.141Z,100.00
2023-04-13T00:40:57.574Z,100.00
2023-04-13T00:43:25.369Z,100.00
2023-04-13T00:45:52.456Z,100.00
2023-04-13T00:48:20.832Z,100.00
2023-04-13T00:50:48.460Z,100.00
2023-04-13T00:53:16.636Z,100.00
2023-04-13T00:55:44.593Z,100.00
2023-04-13T00:58:13.595Z,100.00
2023-04-13T01:00:43.465Z,100.00
2023-04-13T01:03:11.138Z,100.00
2023-04-13T01:06:01.390Z,100.00
2023-04-13T01:08:39.825Z,100.00
2023-04-13T01:11:15.541Z,100.00
2023-04-13T01:14:13.585Z,100.00
2023-04-13T01:16:51.437Z,100.00
2023-04-13T01:19:44.143Z,100.00
2023-04-13T01:22:14.611Z,100.00
2023-04-13T01:25:24.083Z,100.00
2023-04-13T01:28:09.897Z,100.00
2023-04-13T01:30:39.587Z,100.00
2023-04-13T01:33:07.770Z,100.00
2023-04-13T01:35:37.173Z,100.00
2023-04-13T01:38:05.436Z,100.00
2023-04-13T01:40:36.797Z,100.00
2023-04-13T01:43:04.210Z,100.00
2023-04-13T01:45:46.615Z,100.00
2023-04-13T01:48:35.463Z,100.00
2023-04-13T01:51:25.127Z,100.00
2023-04-13T01:54:27.585Z,100.00
2023-04-13T01:56:57.369Z,100.00
2023-04-13T01:59:24.538Z,100.00
2023-04-13T02:01:51.654Z,100.00
2023-04-13T02:04:20.922Z,100.00
2023-04-13T02:06:48.517Z,100.00
2023-04-13T02:09:15.799Z,100.00
2023-04-13T02:11:44.329Z,100.00
2023-04-13T02:14:11.624Z,100.00
2023-04-13T02:16:39.156Z,100.00
2023-04-13T02:19:06.894Z,100.00
2023-04-13T02:21:34.915Z,100.00
2023-04-13T02:24:02.960Z,100.00
2023-04-13T02:26:30.154Z,100.00
2023-04-13T02:28:57.240Z,100.00
2023-04-13T02:31:24.582Z,100.00
2023-04-13T02:33:54.724Z,100.00
2023-04-13T02:36:22.071Z,100.00
2023-04-13T02:38:56.328Z,100.00
2023-04-13T02:41:30.087Z,100.00
2023-04-13T02:43:57.938Z,100.00
2023-04-13T02:46:29.381Z,100.00
2023-04-13T02:49:04.048Z,100.00
2023-04-13T02:51:37.313Z,100.00
2023-04-13T02:54:05.247Z,100.00
2023-04-13T02:56:38.887Z,100.00
2023-04-13T02:59:06.983Z,100.00
2023-04-13T03:01:34.196Z,100.00
2023-04-13T03:04:02.555Z,100.00
2023-04-13T03:06:31.515Z,100.00
2023-04-13T03:09:01.915Z,100.00
2023-04-13T03:11:37.794Z,100.00
2023-04-13T03:14:13.477Z,100.00
2023-04-13T03:16:42.594Z,100.00
2023-04-13T03:19:12.486Z,100.00
2023-04-13T03:21:47.692Z,100.00
2023-04-13T03:24:20.761Z,100.00
2023-04-13T03:26:50.378Z,100.00
2023-04-13T03:29:25.971Z,100.00
2023-04-13T03:31:54.487Z,100.00
2023-04-13T03:34:22.140Z,100.00
2023-04-13T03:36:50.611Z,100.00
2023-04-13T03:39:20.233Z,100.00
2023-04-13T03:41:48.261Z,100.00
2023-04-13T03:44:17.509Z,100.00
2023-04-13T03:46:45.691Z,100.00
2023-04-13T03:49:36.716Z,100.00
2023-04-13T03:52:04.516Z,100.00
2023-04-13T03:54:38.649Z,100.00
2023-04-13T03:57:06.765Z,100.00
2023-04-13T03:59:36.225Z,100.00
2023-04-13T04:02:06.296Z,100.00
2023-04-13T04:04:38.836Z,100.00
2023-04-13T04:07:26.299Z,100.00
2023-04-13T04:09:53.610Z,100.00
2023-04-13T04:12:23.814Z,100.00
2023-04-13T04:14:51.543Z,100.00
2023-04-13T04:17:24.813Z,100.00
2023-04-13T04:19:52.259Z,100.00
2023-04-13T04:22:30.475Z,100.00
2023-04-13T04:25:00.542Z,100.00
2023-04-13T04:27:28.292Z,100.00
2023-04-13T04:30:01.882Z,100.00
2023-04-13T04:32:34.435Z,100.00
2023-04-13T04:35:05.229Z,100.00
2023-04-13T04:37:38.048Z,100.00
2023-04-13T04:40:17.654Z,100.00
2023-04-13T04:42:46.274Z,100.00
2023-04-13T04:45:38.767Z,100.00
2023-04-13T04:48:08.443Z,100.00
2023-04-13T04:50:37.919Z,100.00
2023-04-13T04:53:12.311Z,100.00
2023-04-13T04:55:40.612Z,100.00
2023-04-13T04:58:12.369Z,100.00
2023-04-13T05:00:44.831Z,100.00
2023-04-13T05:03:16.021Z,100.00
2023-04-13T05:05:48.888Z,100.00
2023-04-13T05:08:22.616Z,100.00
2023-04-13T05:10:50.527Z,100.00
2023-04-13T05:13:19.453Z,97.14
2023-04-13T05:15:57.934Z,96.29
2023-04-13T05:18:26.066Z,94.02
2023-04-13T05:20:54.875Z,96.24
2023-04-13T05:23:22.961Z,94.47
2023-04-13T05:25:57.178Z,93.06
2023-04-13T05:28:26.787Z,92.37
2023-04-13T05:30:53.985Z,94.40
2023-04-13T05:33:22.308Z,94.61
2023-04-13T05:35:53.844Z,90.74
2023-04-13T05:38:22.176Z,92.66
2023-04-13T05:40:49.979Z,88.88
2023-04-13T05:43:18.398Z,88.19
2023-04-13T05:45:50.771Z,88.18
2023-04-13T05:48:17.936Z,88.78
2023-04-13T05:50:46.601Z,90.67
2023-04-13T05:53:14.849Z,89.44
2023-04-13T05:55:48.286Z,86.82
2023-04-13T05:58:19.690Z,87.65
2023-04-13T06:00:51.906Z,87.59
2023-04-13T06:03:30.054Z,88.58
2023-04-13T06:05:57.953Z,87.47
2023-04-13T06:08:32.771Z,85.73
2023-04-13T06:11:01.352Z,83.49
2023-04-13T06:13:28.913Z,83.81
2023-04-13T06:15:58.194Z,84.49
2023-04-13T06:18:27.864Z,84.43
2023-04-13T06:20:57.986Z,83.51
2023-04-13T06:23:26.608Z,83.13
2023-04-13T06:25:58.020Z,83.60
2023-04-13T06:28:40.461Z,84.92
2023-04-13T06:31:12.205Z,81.62
2023-04-13T06:33:42.066Z,80.46
2023-04-13T06:36:11.970Z,81.13
2023-04-13T06:38:40.081Z,80.74
2023-04-13T06:41:12.006Z,81.62
2023-04-13T06:43:42.387Z,83.22
2023-04-13T06:46:20.254Z,82.51
2023-04-13T06:48:51.047Z,77.98
2023-04-13T06:51:24.518Z,76.21
2023-04-13T06:53:54.846Z,77.62
2023-04-13T06:56:23.240Z,80.36
2023-04-13T06:58:51.621Z,75.54
2023-04-13T07:01:19.086Z,77.74
2023-04-13T07:03:49.821Z,79.66
2023-04-13T07:06:18.028Z,79.89
2023-04-13T07:08:46.258Z,75.37
2023-04-13T07:11:14.958Z,77.16
2023-04-13T07:13:43.924Z,76.08
2023-04-13T07:16:16.524Z,67.16
2023-04-13T07:18:47.845Z,66.39
2023-04-13T07:21:15.648Z,68.64
2023-04-13T07:24:01.872Z,71.15
2023-04-13T07:26:32.076Z,68.66
2023-04-13T07:29:01.802Z,69.46
2023-04-13T07:31:35.516Z,71.55
2023-04-13T07:34:03.783Z,69.86
2023-04-13T07:36:42.657Z,66.40
2023-04-13T07:39:14.106Z,62.70
2023-04-13T07:41:46.923Z,63.38
2023-04-13T07:44:20.743Z,65.13
2023-04-13T07:46:48.766Z,66.58
2023-04-13T07:49:20.392Z,67.23
2023-04-13T07:51:48.033Z,66.48
2023-04-13T07:54:17.427Z,63.88
2023-04-13T07:56:46.150Z,62.17
2023-04-13T07:59:14.639Z,66.28
2023-04-13T08:01:44.530Z,64.80
2023-04-13T08:04:13.241Z,63.04
2023-04-13T08:06:42.835Z,63.16
2023-04-13T08:09:09.905Z,57.88
2023-04-13T08:11:37.693Z,56.76
2023-04-13T08:14:09.928Z,57.22
2023-04-13T08:16:39.901Z,59.91
2023-04-13T08:19:10.048Z,60.57
2023-04-13T08:21:44.038Z,61.92
2023-04-13T08:24:11.659Z,64.20
2023-04-13T08:26:40.128Z,60.44
2023-04-13T08:29:08.552Z,62.10
2023-04-13T08:31:36.994Z,64.97
2023-04-13T08:34:07.820Z,62.56
2023-04-13T08:36:37.187Z,58.35
2023-04-13T08:39:11.205Z,61.49
2023-04-13T08:41:48.035Z,60.66
2023-04-13T08:44:18.090Z,61.32
2023-04-13T08:46:51.944Z,54.21
2023-04-13T08:49:27.797Z,58.21
2023-04-13T08:52:16.904Z,57.69
2023-04-13T08:54:49.891Z,56.10
2023-04-13T08:57:25.029Z,57.13
2023-04-13T08:59:53.710Z,55.65
2023-04-13T09:02:27.070Z,57.00
2023-04-13T09:05:02.011Z,56.37
2023-04-13T09:07:35.074Z,53.73
2023-04-13T09:10:10.394Z,54.70
2023-04-13T09:12:42.447Z,54.63
2023-04-13T09:15:13.922Z,54.67
2023-04-13T09:17:50.833Z,53.78
2023-04-13T09:20:24.062Z,55.28
2023-04-13T09:22:52.178Z,57.26
2023-04-13T09:25:28.672Z,56.59
2023-04-13T09:27:57.302Z,57.86
2023-04-13T09:30:30.078Z,58.92
2023-04-13T09:33:05.175Z,59.29
2023-04-13T09:35:34.468Z,57.39
2023-04-13T09:38:02.058Z,58.31
2023-04-13T09:40:29.710Z,59.77
2023-04-13T09:42:58.285Z,60.62
2023-04-13T09:45:35.328Z,60.73
2023-04-13T09:48:04.368Z,61.32
2023-04-13T09:50:34.998Z,62.07
2023-04-13T09:53:07.298Z,63.49
2023-04-13T09:55:39.241Z,63.56
2023-04-13T09:58:10.727Z,63.75
2023-04-13T10:00:40.675Z,63.11
2023-04-13T10:03:14.107Z,63.55
2023-04-13T10:05:58.666Z,64.84
2023-04-13T10:08:37.414Z,63.12
2023-04-13T10:11:14.308Z,63.87
2023-04-13T10:13:54.296Z,62.94
2023-04-13T10:16:31.244Z,60.28
2023-04-13T10:19:12.695Z,60.49
2023-04-13T10:21:43.845Z,60.24
2023-04-13T10:24:13.738Z,57.98
2023-04-13T10:26:45.292Z,52.79
2023-04-13T10:29:15.154Z,53.87
2023-04-13T10:31:47.638Z,53.07
2023-04-13T10:34:44.195Z,52.13
2023-04-13T10:37:29.102Z,53.52
2023-04-13T10:40:08.302Z,54.83
2023-04-13T10:45:27.335Z,55.25
2023-04-13T10:47:56.087Z,56.69
2023-04-13T10:50:30.480Z,57.61
2023-04-13T10:53:07.528Z,58.91
2023-04-13T10:55:36.266Z,59.48
2023-04-13T10:58:17.420Z,59.86
2023-04-13T11:00:47.422Z,60.77
2023-04-13T11:03:16.892Z,62.45
2023-04-13T11:05:47.854Z,63.57
2023-04-13T11:08:19.958Z,64.40
2023-04-13T11:10:58.052Z,65.25
2023-04-13T11:13:26.366Z,66.51
2023-04-13T11:16:04.792Z,67.08
2023-04-13T11:18:33.060Z,68.26
2023-04-13T11:21:06.732Z,68.81
2023-04-13T11:23:36.599Z,69.16
2023-04-13T11:26:06.125Z,70.15
2023-04-13T11:28:47.854Z,69.58
2023-04-13T11:31:16.019Z,70.65
2023-04-13T11:33:45.063Z,71.32
2023-04-13T11:36:13.179Z,71.80
2023-04-13T11:38:42.695Z,74.01
2023-04-13T11:43:42.498Z,74.04
2023-04-13T11:46:13.877Z,73.93
2023-04-13T11:48:42.341Z,73.78
2023-04-13T11:51:11.549Z,73.84
2023-04-13T11:53:41.519Z,74.14
2023-04-13T11:56:09.696Z,74.00
2023-04-13T11:58:42.980Z,73.52
2023-04-13T12:01:14.727Z,73.24
2023-04-13T12:06:18.317Z,71.89
2023-04-13T12:08:49.547Z,71.58
2023-04-13T12:11:41.573Z,70.38
2023-04-13T12:14:41.164Z,71.10
2023-04-13T12:17:37.466Z,69.84
2023-04-13T12:20:03.652Z,63.43
2023-04-13T12:22:51.692Z,65.25
2023-04-13T12:25:25.753Z,64.88
2023-04-13T12:27:54.480Z,64.96
2023-04-13T12:30:23.310Z,66.08
2023-04-13T12:32:56.860Z,66.97
2023-04-13T12:35:24.355Z,67.39
2023-04-13T12:37:53.037Z,68.03
2023-04-13T12:40:20.617Z,69.06
2023-04-13T12:42:49.571Z,69.37
2023-04-13T12:45:17.888Z,69.39
2023-04-13T12:47:46.237Z,69.68
2023-04-13T12:50:13.619Z,69.07
2023-04-13T12:52:43.774Z,69.03
2023-04-13T12:55:11.790Z,69.39
2023-04-13T12:57:40.533Z,68.20
2023-04-13T13:00:11.415Z,66.85
2023-04-13T13:02:39.342Z,67.22
2023-04-13T13:05:07.744Z,67.41
2023-04-13T13:07:35.941Z,67.36
2023-04-13T13:10:07.749Z,67.45
2023-04-13T13:12:39.995Z,67.68
2023-04-13T13:15:11.216Z,68.42
2023-04-13T13:17:42.141Z,69.23
2023-04-13T13:20:14.577Z,69.14
2023-04-13T13:22:42.700Z,69.75
2023-04-13T13:25:11.008Z,69.75
2023-04-13T13:28:05.365Z,70.34
2023-04-13T13:30:27.475Z,70.28
2023-04-13T13:32:54.567Z,70.80
2023-04-13T13:35:22.015Z,71.07
2023-04-13T13:37:50.328Z,70.88
2023-04-13T13:40:18.160Z,69.94
2023-04-13T13:42:51.955Z,69.13
2023-04-13T13:45:23.176Z,69.56
2023-04-13T13:47:55.722Z,71.56
2023-04-13T13:50:40.078Z,72.98
2023-04-13T13:53:11.940Z,71.61
2023-04-13T13:55:42.145Z,71.45
2023-04-13T13:58:10.169Z,73.45
2023-04-13T14:00:38.464Z,74.37
2023-04-13T14:03:06.147Z,75.68
2023-04-13T14:05:33.825Z,75.65
2023-04-13T14:08:01.764Z,76.22
2023-04-13T14:10:29.640Z,76.03
2023-04-13T14:12:57.368Z,75.63
2023-04-13T14:15:24.524Z,75.19
2023-04-13T14:18:06.557Z,75.11
2023-04-13T14:20:41.079Z,75.24
2023-04-13T14:23:09.739Z,75.54
2023-04-13T14:25:38.752Z,75.95
2023-04-13T14:28:06.988Z,75.82
2023-04-13T14:30:34.145Z,74.98
2023-04-13T14:33:02.309Z,74.35
2023-04-13T14:35:30.096Z,73.69
2023-04-13T14:37:58.634Z,71.90
2023-04-13T14:40:27.790Z,72.12
2023-04-13T14:42:55.207Z,72.46
2023-04-13T14:45:22.739Z,72.33
2023-04-13T14:47:50.358Z,71.69
2023-04-13T14:50:17.571Z,72.34
2023-04-13T14:52:46.187Z,73.10
2023-04-13T14:55:14.735Z,74.31
2023-04-13T14:57:42.276Z,74.84
2023-04-13T15:00:21.842Z,73.91
2023-04-13T15:02:53.522Z,74.71
2023-04-13T15:05:22.128Z,76.52
2023-04-13T15:07:51.280Z,76.88
2023-04-13T15:10:19.344Z,78.20
2023-04-13T15:12:48.513Z,79.07
2023-04-13T15:15:17.754Z,79.21
2023-04-13T15:17:45.706Z,80.39
2023-04-13T15:20:13.006Z,80.39
2023-04-13T15:22:40.589Z,80.41
2023-04-13T15:25:08.212Z,81.62
2023-04-13T15:27:35.960Z,80.75
2023-04-13T15:30:06.229Z,81.92
2023-04-13T15:32:37.340Z,81.13
2023-04-13T15:35:05.101Z,81.63
2023-04-13T15:37:32.392Z,82.29
2023-04-13T15:40:00.509Z,82.60
2023-04-13T15:42:27.442Z,82.85
2023-04-13T15:44:55.468Z,82.91
2023-04-13T15:47:23.810Z,83.19
2023-04-13T15:49:51.654Z,83.30
2023-04-13T15:52:18.780Z,84.41
2023-04-13T15:54:46.617Z,83.85
2023-04-13T15:57:14.841Z,83.93
2023-04-13T15:59:42.769Z,84.65
2023-04-13T16:02:10.356Z,85.56
2023-04-13T16:04:38.084Z,86.40
2023-04-13T16:07:13.687Z,86.95
2023-04-13T16:09:45.362Z,87.37
2023-04-13T16:12:13.085Z,87.06
2023-04-13T16:14:45.880Z,87.28
2023-04-13T16:17:15.365Z,87.15
2023-04-13T16:19:47.457Z,87.43
2023-04-13T16:22:16.111Z,87.47
2023-04-13T16:24:43.732Z,88.40
2023-04-13T16:27:13.842Z,88.54
2023-04-13T16:29:45.787Z,88.32
2023-04-13T16:32:12.945Z,88.95
2023-04-13T16:34:40.492Z,88.45
2023-04-13T16:37:09.049Z,88.89
2023-04-13T16:39:37.169Z,88.32
2023-04-13T16:42:04.884Z,89.02
2023-04-13T16:44:33.581Z,88.95
2023-04-13T16:47:01.618Z,89.21
2023-04-13T16:49:29.186Z,89.37
2023-04-13T16:51:57.726Z,90.21
2023-04-13T16:54:25.352Z,90.24
2023-04-13T16:56:53.007Z,91.38
2023-04-13T16:59:21.177Z,91.29
2023-04-13T17:01:48.720Z,91.85
2023-04-13T17:04:16.921Z,93.12
2023-04-13T17:06:44.118Z,93.15
2023-04-13T17:09:11.856Z,94.41
2023-04-13T17:11:39.147Z,94.98
2023-04-13T17:14:06.657Z,95.73
2023-04-13T17:16:34.415Z,96.03
2023-04-13T17:19:02.104Z,97.10
2023-04-13T17:21:29.846Z,97.83
2023-04-13T17:23:57.191Z,98.29
2023-04-13T17:26:23.988Z,99.16
2023-04-13T17:28:51.650Z,99.43
2023-04-13T17:31:19.020Z,100.00
2023-04-13T17:33:47.236Z,100.00
2023-04-13T17:36:16.124Z,100.00
2023-04-13T17:38:43.486Z,100.00
2023-04-13T17:41:11.988Z,100.00
2023-04-13T17:43:40.108Z,100.00
2023-04-13T17:46:08.605Z,99.93
2023-04-13T17:48:36.136Z,100.00
2023-04-13T17:51:03.316Z,100.00
2023-04-13T17:53:30.536Z,100.00
2023-04-13T17:55:57.477Z,100.00
2023-04-13T17:58:24.553Z,100.00
2023-04-13T18:00:51.968Z,100.00
2023-04-13T18:03:19.710Z,100.00
2023-04-13T18:05:47.283Z,100.00
2023-04-13T18:08:14.520Z,100.00
2023-04-13T18:10:41.837Z,100.00
2023-04-13T18:13:08.711Z,100.00
2023-04-13T18:15:35.986Z,100.00
2023-04-13T18:18:03.837Z,100.00
2023-04-13T18:20:31.600Z,100.00
2023-04-13T18:22:58.817Z,100.00
2023-04-13T18:25:26.081Z,100.00
2023-04-13T18:27:54.113Z,100.00
2023-04-13T18:30:21.605Z,100.00
2023-04-13T18:32:51.642Z,100.00
2023-04-13T18:35:19.514Z,100.00
2023-04-13T18:37:47.084Z,100.00
2023-04-13T18:40:14.614Z,100.00
2023-04-13T18:42:42.347Z,100.00
2023-04-13T18:45:10.167Z,100.00
2023-04-13T18:47:37.017Z,100.00
2023-04-13T18:50:06.074Z,100.00
2023-04-13T18:52:33.308Z,100.00
2023-04-13T18:55:00.694Z,100.00
2023-04-13T18:57:27.987Z,100.00
2023-04-13T18:59:55.335Z,100.00
2023-04-13T19:02:22.758Z,100.00
2023-04-13T19:04:50.205Z,100.00
2023-04-13T19:07:17.424Z,100.00
2023-04-13T19:09:44.658Z,100.00
2023-04-13T19:12:11.675Z,100.00
2023-04-13T19:14:38.954Z,100.00
2023-04-13T19:17:06.455Z,100.00
2023-04-13T19:19:33.649Z,100.00
2023-04-13T19:22:01.316Z,100.00
2023-04-13T19:24:28.754Z,100.00
2023-04-13T19:26:56.852Z,100.00
2023-04-13T19:29:27.339Z,100.00
2023-04-13T19:31:54.913Z,100.00
2023-04-13T19:34:22.561Z,100.00
2023-04-13T19:36:49.780Z,100.00
2023-04-13T19:39:16.962Z,100.00
2023-04-13T19:41:44.512Z,100.00
2023-04-13T19:44:13.906Z,100.00
2023-04-13T19:46:41.151Z,100.00
2023-04-13T19:49:08.470Z,100.00
2023-04-13T19:51:35.979Z,100.00
2023-04-13T19:54:05.181Z,100.00
2023-04-13T19:56:36.737Z,100.00
2023-04-13T19:59:05.640Z,100.00
2023-04-13T20:01:33.963Z,100.00
2023-04-13T20:04:03.776Z,100.00
2023-04-13T20:06:34.073Z,100.00
2023-04-13T20:09:12.414Z,100.00
2023-04-13T20:11:42.045Z,100.00
2023-04-13T20:14:11.547Z,100.00
2023-04-13T20:16:39.113Z,100.00
2023-04-13T20:19:11.316Z,100.00
2023-04-13T20:21:38.774Z,100.00
2023-04-13T20:24:06.058Z,100.00
2023-04-13T20:26:33.376Z,100.00
2023-04-13T20:29:03.041Z,100.00
2023-04-13T20:31:31.970Z,100.00
2023-04-13T20:33:59.776Z,100.00
2023-04-13T20:36:27.114Z,100.00
2023-04-13T20:38:59.804Z,100.00
2023-04-13T20:41:27.398Z,100.00
2023-04-13T20:43:54.895Z,100.00
2023-04-13T20:46:25.387Z,100.00
2023-04-13T20:48:52.904Z,100.00
2023-04-13T20:51:23.502Z,100.00
2023-04-13T20:53:51.262Z,100.00
2023-04-13T20:56:19.328Z,100.00
2023-04-13T20:58:48.196Z,100.00
2023-04-13T21:01:15.673Z,100.00
2023-04-13T21:03:43.672Z,100.00
2023-04-13T21:06:11.114Z,100.00
2023-04-13T21:08:38.402Z,100.00
2023-04-13T21:11:06.887Z,100.00
2023-04-13T21:13:34.131Z,100.00
2023-04-13T21:16:01.501Z,100.00
2023-04-13T21:18:29.497Z,100.00
2023-04-13T21:20:56.751Z,100.00
2023-04-13T21:23:24.267Z,100.00
2023-04-13T21:25:51.486Z,100.00
2023-04-13T21:28:19.978Z,100.00
2023-04-13T21:30:47.013Z,100.00
2023-04-13T21:33:14.089Z,100.00
2023-04-13T21:35:41.063Z,100.00
2023-04-13T21:38:08.445Z,100.00
2023-04-13T21:40:36.206Z,100.00
2023-04-13T21:43:03.836Z,100.00
2023-04-13T21:45:31.219Z,100.00
2023-04-13T21:47:58.353Z,100.00
2023-04-13T21:50:25.528Z,100.00
2023-04-13T21:52:52.686Z,100.00
2023-04-13T21:55:19.797Z,100.00
2023-04-13T21:57:48.477Z,100.00
2023-04-13T22:00:19.965Z,100.00
2023-04-13T22:02:47.198Z,100.00
2023-04-13T22:05:16.511Z,100.00
2023-04-13T22:07:44.583Z,100.00
2023-04-13T22:10:12.115Z,100.00
2023-04-13T22:12:39.481Z,100.00
2023-04-13T22:15:07.334Z,100.00
2023-04-13T22:17:34.621Z,100.00
2023-04-13T22:20:01.778Z,100.00
2023-04-13T22:22:28.744Z,100.00
2023-04-13T22:24:56.188Z,100.00
2023-04-13T22:27:23.341Z,100.00
2023-04-13T22:29:54.918Z,100.00
2023-04-13T22:32:21.933Z,100.00
2023-04-13T22:34:49.741Z,100.00
2023-04-13T22:37:17.683Z,100.00
2023-04-13T22:39:45.251Z,100.00
2023-04-13T22:42:12.337Z,100.00
2023-04-13T22:44:39.494Z,100.00
2023-04-13T22:47:06.872Z,100.00
2023-04-13T22:49:34.094Z,100.00
2023-04-13T22:52:01.228Z,100.00
2023-04-13T22:54:28.151Z,100.00
2023-04-13T22:56:55.259Z,100.00
2023-04-13T22:59:22.267Z,100.00
2023-04-13T23:01:49.307Z,100.00
2023-04-13T23:04:16.781Z,100.00
2023-04-13T23:06:44.065Z,100.00
2023-04-13T23:09:11.266Z,100.00
2023-04-13T23:11:38.930Z,100.00
2023-04-13T23:14:06.874Z,100.00
2023-04-13T23:16:34.811Z,100.00
2023-04-13T23:19:02.293Z,100.00
2023-04-13T23:21:29.901Z,100.00
2023-04-13T23:23:57.507Z,100.00
2023-04-13T23:26:24.484Z,100.00
2023-04-13T23:28:52.005Z,100.00
2023-04-13T23:31:19.206Z,100.00
2023-04-13T23:33:46.430Z,100.00
2023-04-13T23:36:13.576Z,100.00
2023-04-13T23:38:41.405Z,100.00
2023-04-13T23:41:08.250Z,100.00
2023-04-13T23:43:35.161Z,100.00
2023-04-13T23:46:02.023Z,100.00
2023-04-13T23:48:29.640Z,100.00
2023-04-13T23:50:57.652Z,100.00
2023-04-13T23:53:24.757Z,100.00
2023-04-13T23:55:52.030Z,100.00
2023-04-13T23:58:19.202Z,100.00
